Coronel Hilario Lagos, Argentina
Current Conditions -  °F | °C
As of 12:00 PM on Saturday 25 Oct 2014 (Local Time) from SAOC Reporting Station
Clear Clear  
Wind Chill: 30°   Ceiling: Unl
Heat Index: 30°   Visibility: 6mi
Dew Point: 13°   Wind: 26mph
Humidity: 35%   Direction: 360°N
Pressure: 29.88"   Gusts: NA
Location:  35.02°S, 64.04°W
Report Text: SAOC 251500Z 36023KT CAVOK 30/13 Q1012
Loading
Personal Weather Stations






























Interactive Weather Map
Tropical Storm Tracking
New forecast layout! Learn more

10-Day Weather Forecast

Advertisements
Track Severe Weather on mobile